createdAt,value
2022-12-18T00:00:30.864Z,39.30
2022-12-18T00:02:59.462Z,38.50
2022-12-18T00:05:30.423Z,37.60
2022-12-18T00:07:59.364Z,38.03
2022-12-18T00:10:29.748Z,38.93
2022-12-18T00:13:03.801Z,37.80
2022-12-18T00:15:37.235Z,37.43
2022-12-18T00:18:12.944Z,38.20
2022-12-18T00:20:43.741Z,35.47
2022-12-18T00:23:12.840Z,34.33
2022-12-18T00:25:41.412Z,36.53
2022-12-18T00:28:12.886Z,37.03
2022-12-18T00:30:42.211Z,37.43
2022-12-18T00:33:11.957Z,35.97
2022-12-18T00:35:41.178Z,35.83
2022-12-18T00:38:10.068Z,39.43
2022-12-18T00:40:41.993Z,38.03
2022-12-18T00:43:12.098Z,38.63
2022-12-18T00:45:41.692Z,35.60
2022-12-18T00:48:10.592Z,36.90
2022-12-18T00:50:39.720Z,38.53
2022-12-18T00:53:08.713Z,39.13
2022-12-18T00:55:37.448Z,36.63
2022-12-18T00:58:06.171Z,35.73
2022-12-18T01:00:37.042Z,35.03
2022-12-18T01:03:06.693Z,37.07
2022-12-18T01:05:36.302Z,38.20
2022-12-18T01:08:05.522Z,36.60
2022-12-18T01:10:34.332Z,33.77
2022-12-18T01:13:05.805Z,36.40
2022-12-18T01:15:37.003Z,38.90
2022-12-18T01:18:05.912Z,36.90
2022-12-18T01:20:34.971Z,37.70
2022-12-18T01:23:03.817Z,37.23
2022-12-18T01:25:32.299Z,38.50
2022-12-18T01:28:02.285Z,38.70
2022-12-18T01:30:31.836Z,38.03
2022-12-18T01:33:03.065Z,40.87
2022-12-18T01:35:32.090Z,38.47
2022-12-18T01:38:01.262Z,40.87
2022-12-18T01:40:30.855Z,43.13
2022-12-18T01:42:59.670Z,36.90
2022-12-18T01:45:30.858Z,39.60
2022-12-18T01:48:04.339Z,38.10
2022-12-18T01:50:36.428Z,38.50
2022-12-18T01:53:09.271Z,40.10
2022-12-18T01:55:41.412Z,39.13
2022-12-18T01:58:10.105Z,46.00
2022-12-18T02:00:39.674Z,41.17
2022-12-18T02:03:11.515Z,39.60
2022-12-18T02:05:49.111Z,36.80
2022-12-18T02:08:24.330Z,37.07
2022-12-18T02:11:06.494Z,34.40
2022-12-18T02:13:43.973Z,37.80
2022-12-18T02:16:21.686Z,35.93
2022-12-18T02:19:00.872Z,36.57
2022-12-18T02:21:39.437Z,39.43
2022-12-18T02:24:27.231Z,36.17
2022-12-18T02:27:01.316Z,35.67
2022-12-18T02:29:36.144Z,43.40
2022-12-18T02:32:08.998Z,39.50
2022-12-18T02:34:42.602Z,36.67
2022-12-18T02:37:19.511Z,37.40
2022-12-18T02:39:52.120Z,42.23
2022-12-18T02:42:24.870Z,39.40
2022-12-18T02:44:55.204Z,37.57
2022-12-18T02:47:30.565Z,38.33
2022-12-18T02:50:05.788Z,35.00
2022-12-18T02:52:42.070Z,40.10
2022-12-18T02:55:28.360Z,39.10
2022-12-18T02:58:08.152Z,40.10
2022-12-18T03:00:45.469Z,35.23
2022-12-18T03:03:19.594Z,37.60
2022-12-18T03:05:53.192Z,34.23
2022-12-18T03:08:25.856Z,34.47
2022-12-18T03:11:04.258Z,32.87
2022-12-18T03:13:42.104Z,35.10
2022-12-18T03:16:18.067Z,34.73
2022-12-18T03:18:50.828Z,36.17
2022-12-18T03:21:23.844Z,34.40
2022-12-18T03:23:55.940Z,36.40
2022-12-18T03:26:32.173Z,35.20
2022-12-18T03:29:12.475Z,33.53
2022-12-18T03:31:50.261Z,35.70
2022-12-18T03:34:25.760Z,34.33
2022-12-18T03:36:56.393Z,33.77
2022-12-18T03:39:26.929Z,32.63
2022-12-18T03:42:05.956Z,35.77
2022-12-18T03:44:47.027Z,30.90
2022-12-18T03:47:20.373Z,35.70
2022-12-18T03:49:53.029Z,33.40
2022-12-18T03:52:30.706Z,33.17
2022-12-18T03:55:03.649Z,30.63
2022-12-18T03:57:35.382Z,31.80
2022-12-18T04:00:11.792Z,30.23
2022-12-18T04:02:56.590Z,31.17
2022-12-18T04:05:35.160Z,33.70
2022-12-18T04:08:05.803Z,33.43
2022-12-18T04:10:38.904Z,33.53
2022-12-18T04:13:08.005Z,33.63
2022-12-18T04:15:41.496Z,33.70
2022-12-18T04:18:15.389Z,31.67
2022-12-18T04:20:45.751Z,33.90
2022-12-18T04:23:14.806Z,42.37
2022-12-18T04:25:44.049Z,34.70
2022-12-18T04:28:18.481Z,30.43
2022-12-18T04:30:50.085Z,32.07
2022-12-18T04:33:18.941Z,33.03
2022-12-18T04:35:47.808Z,34.33
2022-12-18T04:38:16.905Z,35.33
2022-12-18T04:40:46.908Z,33.87
2022-12-18T04:43:23.480Z,33.43
2022-12-18T04:45:54.887Z,33.00
2022-12-18T04:48:25.415Z,38.37
2022-12-18T04:50:55.682Z,33.00
2022-12-18T04:53:26.255Z,36.73
2022-12-18T04:56:05.994Z,36.03
2022-12-18T04:58:34.852Z,35.13
2022-12-18T05:01:06.264Z,33.60
2022-12-18T05:03:35.138Z,34.07
2022-12-18T05:06:04.254Z,37.80
2022-12-18T05:08:32.822Z,36.63
2022-12-18T05:11:03.050Z,35.53
2022-12-18T05:13:32.976Z,40.17
2022-12-18T05:16:01.884Z,38.80
2022-12-18T05:18:33.520Z,36.67
2022-12-18T05:21:02.774Z,37.57
2022-12-18T05:23:32.750Z,38.30
2022-12-18T05:26:03.793Z,36.77
2022-12-18T05:28:36.168Z,37.93
2022-12-18T05:31:06.431Z,33.00
2022-12-18T05:33:38.693Z,36.00
2022-12-18T05:36:10.494Z,39.57
2022-12-18T05:38:41.391Z,36.47
2022-12-18T05:41:11.633Z,35.73
2022-12-18T05:43:43.115Z,35.13
2022-12-18T05:46:15.899Z,34.87
2022-12-18T05:48:48.624Z,36.83
2022-12-18T05:51:19.566Z,37.17
2022-12-18T05:53:48.852Z,36.70
2022-12-18T05:56:20.797Z,35.60
2022-12-18T05:58:50.058Z,34.03
2022-12-18T06:01:21.379Z,37.33
2022-12-18T06:03:52.560Z,37.20
2022-12-18T06:06:24.865Z,37.27
2022-12-18T06:08:55.043Z,34.93
2022-12-18T06:11:26.959Z,36.90
2022-12-18T06:13:59.053Z,37.17
2022-12-18T06:16:29.233Z,37.87
2022-12-18T06:19:01.894Z,34.80
2022-12-18T06:21:32.022Z,34.33
2022-12-18T06:24:03.392Z,38.37
2022-12-18T06:26:32.460Z,36.07
2022-12-18T06:29:01.686Z,35.03
2022-12-18T06:31:30.701Z,32.73
2022-12-18T06:34:01.777Z,34.87
2022-12-18T06:36:31.035Z,36.47
2022-12-18T06:39:00.185Z,34.33
2022-12-18T06:41:29.337Z,35.90
2022-12-18T06:43:59.929Z,33.70
2022-12-18T06:46:29.604Z,36.97
2022-12-18T06:48:58.566Z,40.77
2022-12-18T06:51:29.761Z,41.13
2022-12-18T06:53:58.959Z,39.50
2022-12-18T06:56:28.490Z,41.47
2022-12-18T06:58:57.591Z,38.50
2022-12-18T07:01:27.010Z,37.43
2022-12-18T07:03:56.702Z,40.20
2022-12-18T07:06:29.743Z,36.73
2022-12-18T07:08:58.641Z,42.07
2022-12-18T07:11:27.563Z,40.37
2022-12-18T07:14:04.115Z,38.67
2022-12-18T07:16:33.094Z,41.90
2022-12-18T07:19:01.693Z,43.13
2022-12-18T07:21:34.145Z,37.97
2022-12-18T07:24:03.232Z,38.83
2022-12-18T07:26:33.275Z,35.63
2022-12-18T07:29:04.426Z,36.30
2022-12-18T07:31:33.399Z,41.03
2022-12-18T07:34:04.974Z,38.60
2022-12-18T07:36:36.516Z,36.33
2022-12-18T07:39:05.543Z,36.13
2022-12-18T07:41:34.344Z,137.03
2022-12-18T07:44:12.642Z,66.10
2022-12-18T07:46:48.057Z,45.77
2022-12-18T07:49:29.048Z,37.67
2022-12-18T07:52:25.580Z,37.80
2022-12-18T07:55:08.602Z,39.13
2022-12-18T07:58:05.325Z,37.17
2022-12-18T08:00:34.475Z,39.63
2022-12-18T08:03:03.861Z,41.87
2022-12-18T08:05:33.963Z,40.20
2022-12-18T08:08:14.397Z,40.00
2022-12-18T08:11:05.171Z,35.33
2022-12-18T08:13:39.181Z,37.47
2022-12-18T08:16:12.384Z,36.70
2022-12-18T08:18:41.558Z,40.77
2022-12-18T08:21:12.127Z,41.63
2022-12-18T08:23:44.068Z,39.03
2022-12-18T08:26:14.589Z,37.30
2022-12-18T08:28:44.278Z,34.57
2022-12-18T08:31:14.081Z,36.77
2022-12-18T08:33:44.325Z,32.53
2022-12-18T08:36:13.879Z,38.07
2022-12-18T08:38:44.646Z,30.30
2022-12-18T08:41:15.218Z,33.53
2022-12-18T08:43:57.197Z,32.27
2022-12-18T08:46:28.675Z,30.67
2022-12-18T08:48:58.496Z,29.37
2022-12-18T08:51:27.030Z,30.07
2022-12-18T08:53:58.300Z,29.13
2022-12-18T08:56:27.443Z,29.27
2022-12-18T08:58:57.013Z,32.83
2022-12-18T09:01:26.691Z,26.27
2022-12-18T09:03:55.990Z,38.97
2022-12-18T09:06:27.236Z,41.43
2022-12-18T09:08:58.340Z,28.03
2022-12-18T09:11:29.757Z,28.30
2022-12-18T09:14:00.913Z,39.47
2022-12-18T09:16:32.839Z,29.97
2022-12-18T09:19:02.659Z,25.37
2022-12-18T09:21:35.908Z,24.87
2022-12-18T09:24:09.591Z,24.07
2022-12-18T09:26:38.614Z,23.13
2022-12-18T09:29:09.625Z,21.40
2022-12-18T09:31:44.312Z,19.33
2022-12-18T09:34:13.416Z,23.10
2022-12-18T09:36:42.448Z,20.67
2022-12-18T09:39:15.084Z,24.13
2022-12-18T09:41:50.723Z,26.33
2022-12-18T09:44:27.696Z,25.40
2022-12-18T09:47:07.514Z,31.50
2022-12-18T09:49:41.592Z,23.50
2022-12-18T09:52:15.502Z,20.97
2022-12-18T09:54:49.552Z,19.20
2022-12-18T09:57:22.078Z,20.43
2022-12-18T09:59:56.089Z,18.33
2022-12-18T10:02:27.027Z,17.73
2022-12-18T10:05:06.794Z,19.57
2022-12-18T10:07:45.574Z,20.63
2022-12-18T10:10:29.604Z,18.07
2022-12-18T10:13:09.442Z,19.67
2022-12-18T10:15:47.019Z,18.83
2022-12-18T10:18:29.035Z,18.03
2022-12-18T10:21:02.098Z,18.40
2022-12-18T10:23:46.388Z,19.20
2022-12-18T10:26:20.232Z,19.63
2022-12-18T10:28:52.479Z,17.30
2022-12-18T10:31:27.458Z,16.00
2022-12-18T10:33:59.835Z,14.73
2022-12-18T10:36:29.325Z,15.40
2022-12-18T10:39:20.153Z,15.63
2022-12-18T10:41:52.206Z,19.23
2022-12-18T10:44:23.250Z,19.40
2022-12-18T10:46:56.756Z,19.30
2022-12-18T10:49:29.674Z,22.97
2022-12-18T10:52:10.799Z,17.53
2022-12-18T10:54:41.472Z,22.80
2022-12-18T10:57:39.222Z,22.40
2022-12-18T11:00:32.858Z,21.90
2022-12-18T11:03:04.369Z,22.57
2022-12-18T11:05:37.303Z,21.50
2022-12-18T11:08:06.563Z,21.20
2022-12-18T11:10:41.321Z,21.33
2022-12-18T11:13:31.424Z,21.60
2022-12-18T11:16:01.020Z,22.10
2022-12-18T11:18:32.630Z,19.67
2022-12-18T11:21:08.095Z,19.93
2022-12-18T11:23:39.147Z,19.43
2022-12-18T11:26:09.471Z,20.97
2022-12-18T11:28:42.801Z,19.90
2022-12-18T11:31:22.478Z,18.17
2022-12-18T11:36:53.042Z,16.33
2022-12-18T11:39:30.508Z,19.47
2022-12-18T11:42:13.161Z,14.10
2022-12-18T11:44:51.177Z,18.47
2022-12-18T11:47:30.115Z,17.60
2022-12-18T11:50:02.594Z,16.17
2022-12-18T11:52:36.887Z,18.50
2022-12-18T11:55:15.599Z,15.93
2022-12-18T11:57:51.761Z,17.90
2022-12-18T12:00:29.264Z,15.43
2022-12-18T12:03:23.323Z,13.80
2022-12-18T12:06:05.025Z,15.87
2022-12-18T12:08:45.385Z,15.33
2022-12-18T12:11:24.110Z,14.80
2022-12-18T12:14:04.587Z,16.87
2022-12-18T12:16:44.285Z,15.10
2022-12-18T12:19:31.844Z,13.63
2022-12-18T12:22:06.888Z,13.23
2022-12-18T12:24:49.084Z,14.37
2022-12-18T12:27:27.219Z,15.23
2022-12-18T12:30:06.604Z,16.87
2022-12-18T12:33:04.445Z,13.23
2022-12-18T12:35:45.607Z,15.10
2022-12-18T12:38:18.676Z,12.77
2022-12-18T12:40:58.596Z,14.03
2022-12-18T12:43:37.118Z,13.93
2022-12-18T12:46:10.370Z,13.97
2022-12-18T12:48:46.721Z,12.20
2022-12-18T12:51:20.436Z,12.70
2022-12-18T12:53:49.609Z,16.83
2022-12-18T12:56:22.767Z,12.47
2022-12-18T12:59:05.222Z,11.83
2022-12-18T13:01:44.072Z,13.23
2022-12-18T13:04:26.182Z,12.03
2022-12-18T13:07:02.774Z,12.53
2022-12-18T13:09:36.909Z,12.97
2022-12-18T13:12:27.108Z,12.50
2022-12-18T13:14:56.795Z,13.07
2022-12-18T13:17:33.766Z,10.67
2022-12-18T13:20:15.640Z,12.80
2022-12-18T13:22:53.975Z,14.70
2022-12-18T13:25:39.318Z,11.60
2022-12-18T13:28:13.835Z,10.90
2022-12-18T13:30:49.550Z,13.00
2022-12-18T13:36:43.406Z,13.80
2022-12-18T13:39:34.502Z,14.17
2022-12-18T13:42:46.745Z,15.17
2022-12-18T13:45:54.959Z,16.53
2022-12-18T13:48:29.139Z,16.63
2022-12-18T13:51:04.381Z,18.20
2022-12-18T13:53:41.659Z,28.00
2022-12-18T13:56:10.990Z,21.83
2022-12-18T13:58:40.257Z,25.13
2022-12-18T14:01:25.255Z,20.33
2022-12-18T14:04:11.270Z,22.07
2022-12-18T14:06:40.958Z,27.13
2022-12-18T14:09:20.299Z,21.83
2022-12-18T14:11:51.172Z,25.03
2022-12-18T14:14:22.785Z,23.90
2022-12-18T14:16:53.669Z,22.47
2022-12-18T14:19:23.282Z,26.37
2022-12-18T14:21:53.555Z,21.23
2022-12-18T14:24:25.972Z,22.30
2022-12-18T14:26:55.378Z,22.73
2022-12-18T14:29:31.434Z,22.57
2022-12-18T14:32:18.544Z,19.57
2022-12-18T14:34:48.856Z,20.93
2022-12-18T14:37:20.636Z,19.13
2022-12-18T14:40:03.173Z,17.27
2022-12-18T14:42:36.581Z,22.07
2022-12-18T14:45:41.575Z,18.63
2022-12-18T14:48:19.115Z,18.77
2022-12-18T14:51:04.554Z,19.87
2022-12-18T14:53:40.151Z,22.67
2022-12-18T14:56:20.210Z,21.60
2022-12-18T14:58:51.653Z,31.00
2022-12-18T15:01:32.199Z,31.53
2022-12-18T15:04:03.758Z,24.60
2022-12-18T15:06:41.383Z,19.03
2022-12-18T15:09:26.543Z,21.20
2022-12-18T15:12:02.572Z,20.87
2022-12-18T15:14:38.192Z,21.50
2022-12-18T15:17:10.685Z,20.17
2022-12-18T15:19:44.179Z,15.90
2022-12-18T15:22:23.903Z,18.63
2022-12-18T15:24:54.609Z,18.10
2022-12-18T15:27:32.775Z,15.77
2022-12-18T15:30:21.272Z,16.73
2022-12-18T15:32:51.672Z,17.03
2022-12-18T15:35:24.626Z,14.87
2022-12-18T15:37:54.545Z,16.87
2022-12-18T15:40:26.283Z,14.00
2022-12-18T15:43:20.522Z,16.90
2022-12-18T15:45:49.846Z,17.03
2022-12-18T15:48:24.840Z,17.80
2022-12-18T15:50:58.720Z,17.53
2022-12-18T15:53:30.886Z,15.03
2022-12-18T15:56:13.888Z,20.63
2022-12-18T15:58:47.123Z,19.53
2022-12-18T16:01:19.297Z,18.47
2022-12-18T16:03:48.476Z,22.20
2022-12-18T16:06:17.210Z,19.13
2022-12-18T16:08:46.376Z,17.00
2022-12-18T16:11:38.361Z,21.03
2022-12-18T16:14:18.603Z,18.07
2022-12-18T16:16:48.786Z,17.43
2022-12-18T16:19:17.894Z,17.27
2022-12-18T16:21:48.595Z,15.33
2022-12-18T16:24:19.404Z,16.17
2022-12-18T16:26:48.431Z,18.50
2022-12-18T16:29:24.607Z,19.03
2022-12-18T16:31:55.300Z,18.53
2022-12-18T16:34:29.190Z,18.33
2022-12-18T16:37:05.524Z,17.60
2022-12-18T16:39:35.937Z,16.43
2022-12-18T16:42:06.615Z,21.53
2022-12-18T16:44:40.256Z,17.43
2022-12-18T16:47:09.652Z,18.73
2022-12-18T16:49:40.851Z,20.03
2022-12-18T16:52:10.858Z,19.20
2022-12-18T16:54:39.703Z,18.27
2022-12-18T16:57:10.799Z,20.27
2022-12-18T16:59:42.337Z,19.10
2022-12-18T17:02:19.786Z,23.33
2022-12-18T17:04:56.751Z,18.87
2022-12-18T17:07:28.503Z,23.37
2022-12-18T17:09:57.894Z,20.67
2022-12-18T17:12:26.858Z,21.67
2022-12-18T17:14:59.411Z,18.10
2022-12-18T17:17:29.831Z,18.37
2022-12-18T17:19:58.639Z,18.37
2022-12-18T17:22:27.992Z,18.57
2022-12-18T17:24:57.011Z,21.17
2022-12-18T17:27:27.372Z,20.43
2022-12-18T17:29:59.017Z,17.90
2022-12-18T17:32:28.065Z,19.70
2022-12-18T17:34:57.228Z,19.17
2022-12-18T17:37:27.376Z,18.73
2022-12-18T17:39:56.238Z,18.80
2022-12-18T17:42:29.553Z,17.53
2022-12-18T17:45:01.440Z,17.43
2022-12-18T17:47:30.715Z,20.37
2022-12-18T17:50:00.370Z,16.37
2022-12-18T17:52:29.749Z,15.80
2022-12-18T17:54:58.748Z,18.10
2022-12-18T17:57:28.437Z,17.93
2022-12-18T17:59:59.681Z,17.60
2022-12-18T18:02:29.576Z,16.63
2022-12-18T18:04:59.838Z,16.73
2022-12-18T18:07:29.125Z,15.83
2022-12-18T18:09:58.184Z,20.03
2022-12-18T18:12:39.923Z,14.87
2022-12-18T18:15:13.093Z,20.83
2022-12-18T18:17:42.804Z,17.13
2022-12-18T18:20:20.692Z,16.97
2022-12-18T18:22:56.244Z,16.73
2022-12-18T18:25:27.561Z,16.03
2022-12-18T18:27:58.061Z,19.37
2022-12-18T18:30:30.612Z,16.77
2022-12-18T18:33:01.508Z,17.67
2022-12-18T18:35:53.387Z,16.93
2022-12-18T18:38:23.645Z,21.57
2022-12-18T18:41:03.079Z,27.50
2022-12-18T18:43:33.802Z,21.73
2022-12-18T18:46:07.122Z,18.33
2022-12-18T18:48:39.836Z,20.40
2022-12-18T18:51:20.894Z,18.83
2022-12-18T18:53:53.249Z,18.67
2022-12-18T18:56:56.679Z,19.47
2022-12-18T18:59:16.923Z,21.63
2022-12-18T19:01:52.367Z,19.00
2022-12-18T19:04:22.195Z,20.77
2022-12-18T19:06:51.504Z,21.37
2022-12-18T19:09:21.764Z,19.20
2022-12-18T19:12:04.689Z,20.30
2022-12-18T19:14:34.413Z,26.13
2022-12-18T19:17:06.007Z,19.60
2022-12-18T19:19:39.424Z,19.90
2022-12-18T19:22:10.495Z,24.43
2022-12-18T19:24:39.855Z,20.63
2022-12-18T19:27:10.613Z,19.23
2022-12-18T19:29:39.514Z,20.03
2022-12-18T19:32:11.376Z,20.73
2022-12-18T19:34:41.639Z,21.27
2022-12-18T19:37:12.612Z,18.57
2022-12-18T19:39:45.296Z,17.80
2022-12-18T19:42:14.444Z,18.30
2022-12-18T19:44:44.275Z,21.10
2022-12-18T19:47:17.001Z,18.53
2022-12-18T19:49:46.317Z,19.47
2022-12-18T19:52:21.774Z,18.47
2022-12-18T19:54:51.471Z,19.93
2022-12-18T19:57:20.484Z,17.47
2022-12-18T19:59:49.903Z,16.47
2022-12-18T20:02:21.175Z,18.07
2022-12-18T20:04:51.274Z,17.03
2022-12-18T20:07:20.272Z,19.03
2022-12-18T20:09:51.644Z,18.37
2022-12-18T20:12:28.024Z,15.70
2022-12-18T20:14:57.423Z,15.27
2022-12-18T20:17:32.575Z,17.87
2022-12-18T20:20:03.585Z,18.57
2022-12-18T20:22:33.617Z,15.87
2022-12-18T20:25:04.236Z,16.30
2022-12-18T20:27:33.742Z,16.20
2022-12-18T20:30:02.670Z,17.23
2022-12-18T20:32:37.234Z,17.57
2022-12-18T20:35:07.136Z,14.60
2022-12-18T20:37:37.435Z,15.87
2022-12-18T20:40:11.227Z,15.77
2022-12-18T20:42:42.620Z,17.83
2022-12-18T20:45:16.906Z,14.97
2022-12-18T20:47:48.201Z,18.70
2022-12-18T20:50:17.314Z,15.73
2022-12-18T20:52:50.000Z,19.13
2022-12-18T20:55:20.052Z,15.93
2022-12-18T20:57:49.037Z,16.83
2022-12-18T21:00:21.191Z,17.73
2022-12-18T21:02:53.193Z,15.50
2022-12-18T21:05:23.102Z,15.90
2022-12-18T21:07:52.271Z,16.73
2022-12-18T21:10:21.299Z,15.83
2022-12-18T21:12:50.930Z,16.90
2022-12-18T21:15:28.887Z,17.87
2022-12-18T21:18:00.090Z,16.63
2022-12-18T21:20:29.062Z,16.47
2022-12-18T21:23:11.269Z,20.73
2022-12-18T21:25:46.651Z,20.43
2022-12-18T21:28:18.740Z,20.67
2022-12-18T21:30:48.730Z,16.00
2022-12-18T21:33:21.021Z,18.07
2022-12-18T21:35:50.452Z,19.10
2022-12-18T21:38:19.560Z,17.03
2022-12-18T21:40:51.203Z,17.70
2022-12-18T21:43:32.998Z,18.13
2022-12-18T21:46:02.321Z,19.13
2022-12-18T21:48:34.314Z,19.43
2022-12-18T21:51:06.450Z,17.77
2022-12-18T21:53:38.857Z,21.00
2022-12-18T21:56:08.575Z,19.27
2022-12-18T21:58:40.920Z,15.67
2022-12-18T22:01:26.903Z,21.90
2022-12-18T22:04:08.839Z,18.73
2022-12-18T22:06:37.724Z,18.40
2022-12-18T22:09:08.356Z,16.47
2022-12-18T22:11:39.842Z,15.93
2022-12-18T22:14:09.817Z,15.37
2022-12-18T22:16:40.324Z,17.10
2022-12-18T22:19:14.835Z,16.03
2022-12-18T22:21:45.769Z,18.13
2022-12-18T22:24:18.238Z,17.73
2022-12-18T22:26:51.015Z,18.40
2022-12-18T22:29:34.464Z,16.00
2022-12-18T22:32:04.482Z,18.33
2022-12-18T22:34:38.198Z,17.50
2022-12-18T22:37:08.069Z,19.13
2022-12-18T22:39:38.561Z,17.17
2022-12-18T22:42:08.579Z,17.97
2022-12-18T22:44:37.077Z,16.27
2022-12-18T22:47:09.157Z,17.00
2022-12-18T22:49:40.593Z,16.33
2022-12-18T22:52:12.060Z,17.17
2022-12-18T22:54:43.736Z,15.80
2022-12-18T22:57:13.612Z,15.37
2022-12-18T22:59:45.094Z,16.03
2022-12-18T23:02:14.467Z,15.13
2022-12-18T23:04:45.478Z,17.90
2022-12-18T23:07:14.770Z,16.13
2022-12-18T23:09:43.775Z,14.97
2022-12-18T23:12:17.993Z,16.70
2022-12-18T23:14:47.471Z,14.97
2022-12-18T23:17:16.700Z,15.43
2022-12-18T23:19:49.374Z,16.20
2022-12-18T23:22:18.711Z,17.53
2022-12-18T23:24:48.178Z,15.40
2022-12-18T23:27:17.901Z,13.37
2022-12-18T23:29:47.277Z,15.10
2022-12-18T23:32:18.529Z,12.93
2022-12-18T23:34:53.013Z,15.13
2022-12-18T23:37:49.911Z,13.40
2022-12-18T23:40:15.958Z,13.27
2022-12-18T23:42:45.184Z,17.87
2022-12-18T23:45:17.818Z,14.40
2022-12-18T23:47:50.882Z,14.07
2022-12-18T23:50:29.714Z,16.90
2022-12-18T23:53:05.509Z,13.20
2022-12-18T23:55:40.668Z,14.87
2022-12-18T23:58:11.001Z,13.83
